sensor_id;sensor_type;location;lat;lon;timestamp;pressure;altitude;pressure_sealevel;temperature;humidity
29331;BME280;16331;52.528;13.342;2023-04-22T00:01:32;159729.63;;;14.64;79.44
29331;BME280;16331;52.528;13.342;2023-04-22T00:03:58;159708.94;;;14.57;79.29
29331;BME280;16331;52.528;13.342;2023-04-22T00:06:24;159710.34;;;14.57;80.18
29331;BME280;16331;52.528;13.342;2023-04-22T00:08:53;159717.25;;;14.60;80.26
29331;BME280;16331;52.528;13.342;2023-04-22T00:11:19;159699.34;;;14.53;80.74
29331;BME280;16331;52.528;13.342;2023-04-22T00:13:45;159693.81;;;14.51;81.14
29331;BME280;16331;52.528;13.342;2023-04-22T00:16:14;159655.28;;;14.37;81.46
29331;BME280;16331;52.528;13.342;2023-04-22T00:18:43;159670.41;;;14.42;81.29
29331;BME280;16331;52.528;13.342;2023-04-22T00:21:09;159681.44;;;14.46;80.93
29331;BME280;16331;52.528;13.342;2023-04-22T00:23:36;159678.66;;;14.45;81.35
29331;BME280;16331;52.528;13.342;2023-04-22T00:26:04;159674.53;;;14.44;82.21
29331;BME280;16331;52.528;13.342;2023-04-22T00:28:30;159653.91;;;14.36;81.70
29331;BME280;16331;52.528;13.342;2023-04-22T00:30:58;159604.28;;;14.18;83.58
29331;BME280;16331;52.528;13.342;2023-04-22T00:33:24;159640.13;;;14.31;83.18
29331;BME280;16331;52.528;13.342;2023-04-22T00:35:51;159648.38;;;14.34;82.84
29331;BME280;16331;52.528;13.342;2023-04-22T00:38:19;159659.41;;;14.38;82.51
29331;BME280;16331;52.528;13.342;2023-04-22T00:40:52;159648.38;;;14.34;82.49
29331;BME280;16331;52.528;13.342;2023-04-22T00:43:18;159631.88;;;14.28;83.20
29331;BME280;16331;52.528;13.342;2023-04-22T00:45:44;159607.06;;;14.19;83.30
29331;BME280;16331;52.528;13.342;2023-04-22T00:48:12;159593.28;;;14.14;83.13
29331;BME280;16331;52.528;13.342;2023-04-22T00:50:41;159597.41;;;14.16;83.53
29331;BME280;16331;52.528;13.342;2023-04-22T00:53:09;159608.41;;;14.20;83.08
29331;BME280;16331;52.528;13.342;2023-04-22T00:55:36;159590.50;;;14.13;83.89
29331;BME280;16331;52.528;13.342;2023-04-22T00:58:03;159572.66;;;14.07;83.30
29331;BME280;16331;52.528;13.342;2023-04-22T01:00:29;159551.97;;;13.99;84.14
29331;BME280;16331;52.528;13.342;2023-04-22T01:02:57;159593.28;;;14.14;83.87
29331;BME280;16331;52.528;13.342;2023-04-22T01:05:25;159568.47;;;14.05;84.41
29331;BME280;16331;52.528;13.342;2023-04-22T01:07:53;159579.53;;;14.09;83.72
29331;BME280;16331;52.528;13.342;2023-04-22T01:10:19;159571.28;;;14.06;83.18
29331;BME280;16331;52.528;13.342;2023-04-22T01:12:48;159564.34;;;14.04;84.36
29331;BME280;16331;52.528;13.342;2023-04-22T01:15:15;159582.25;;;14.10;83.14
29331;BME280;16331;52.528;13.342;2023-04-22T01:17:41;159553.38;;;14.00;83.83
29331;BME280;16331;52.528;13.342;2023-04-22T01:20:07;159565.75;;;14.04;83.82
29331;BME280;16331;52.528;13.342;2023-04-22T01:22:43;159557.50;;;14.01;83.79
29331;BME280;16331;52.528;13.342;2023-04-22T01:25:11;159545.13;;;13.97;84.89
29331;BME280;16331;52.528;13.342;2023-04-22T01:27:38;159561.63;;;14.03;83.96
29331;BME280;16331;52.528;13.342;2023-04-22T01:30:07;159510.72;;;13.84;85.27
29331;BME280;16331;52.528;13.342;2023-04-22T01:32:33;159513.47;;;13.85;85.10
29331;BME280;16331;52.528;13.342;2023-04-22T01:35:03;159532.75;;;13.92;84.74
29331;BME280;16331;52.528;13.342;2023-04-22T01:37:29;159536.88;;;13.94;84.49
29331;BME280;16331;52.528;13.342;2023-04-22T01:39:57;159532.75;;;13.92;84.50
29331;BME280;16331;52.528;13.342;2023-04-22T01:42:24;159463.91;;;13.67;86.02
29331;BME280;16331;52.528;13.342;2023-04-22T01:44:52;159501.09;;;13.81;85.58
29331;BME280;16331;52.528;13.342;2023-04-22T01:47:18;159507.94;;;13.83;85.14
29331;BME280;16331;52.528;13.342;2023-04-22T01:49:45;159480.47;;;13.73;86.16
29331;BME280;16331;52.528;13.342;2023-04-22T01:52:11;159491.44;;;13.77;85.52
29331;BME280;16331;52.528;13.342;2023-04-22T01:54:38;159477.69;;;13.72;86.19
29331;BME280;16331;52.528;13.342;2023-04-22T01:57:09;159469.44;;;13.69;86.24
29331;BME280;16331;52.528;13.342;2023-04-22T01:59:36;159468.03;;;13.69;86.66
29331;BME280;16331;52.528;13.342;2023-04-22T02:02:03;159441.91;;;13.59;87.45
29331;BME280;16331;52.528;13.342;2023-04-22T02:04:29;159422.69;;;13.52;87.58
29331;BME280;16331;52.528;13.342;2023-04-22T02:06:55;159444.69;;;13.60;86.94
29331;BME280;16331;52.528;13.342;2023-04-22T02:09:23;159441.91;;;13.59;87.36
29331;BME280;16331;52.528;13.342;2023-04-22T02:11:49;159426.81;;;13.54;87.59
29331;BME280;16331;52.528;13.342;2023-04-22T02:14:15;159465.31;;;13.68;87.00
29331;BME280;16331;52.528;13.342;2023-04-22T02:16:42;159458.47;;;13.65;86.62
29331;BME280;16331;52.528;13.342;2023-04-22T02:19:08;159428.16;;;13.54;87.64
29331;BME280;16331;52.528;13.342;2023-04-22T02:21:35;159436.44;;;13.57;87.59
29331;BME280;16331;52.528;13.342;2023-04-22T02:24:01;159410.31;;;13.48;87.45
29331;BME280;16331;52.528;13.342;2023-04-22T02:26:27;159415.78;;;13.50;87.27
29331;BME280;16331;52.528;13.342;2023-04-22T02:28:55;159414.44;;;13.49;86.98
29331;BME280;16331;52.528;13.342;2023-04-22T02:31:21;159408.91;;;13.47;87.86
29331;BME280;16331;52.528;13.342;2023-04-22T02:33:50;159403.41;;;13.45;87.74
29331;BME280;16331;52.528;13.342;2023-04-22T02:36:18;159367.63;;;13.32;88.92
29331;BME280;16331;52.528;13.342;2023-04-22T02:38:44;159414.44;;;13.49;88.37
29331;BME280;16331;52.528;13.342;2023-04-22T02:41:10;159374.53;;;13.35;88.73
29331;BME280;16331;52.528;13.342;2023-04-22T02:43:37;159381.41;;;13.37;89.51
29331;BME280;16331;52.528;13.342;2023-04-22T02:46:03;159370.44;;;13.33;89.31
29331;BME280;16331;52.528;13.342;2023-04-22T02:48:29;159359.38;;;13.29;90.21
29331;BME280;16331;52.528;13.342;2023-04-22T02:50:55;159337.38;;;13.21;90.64
29331;BME280;16331;52.528;13.342;2023-04-22T02:53:23;159307.16;;;13.10;91.62
29331;BME280;16331;52.528;13.342;2023-04-22T02:55:51;159326.41;;;13.17;91.03
29331;BME280;16331;52.528;13.342;2023-04-22T02:58:17;159323.63;;;13.16;91.55
29331;BME280;16331;52.528;13.342;2023-04-22T03:00:43;159312.66;;;13.12;91.97
29331;BME280;16331;52.528;13.342;2023-04-22T03:03:09;159305.75;;;13.09;92.16
29331;BME280;16331;52.528;13.342;2023-04-22T03:05:39;159308.53;;;13.11;92.28
29331;BME280;16331;52.528;13.342;2023-04-22T03:08:05;159269.94;;;12.96;92.50
29331;BME280;16331;52.528;13.342;2023-04-22T03:10:31;159275.44;;;12.98;93.28
29331;BME280;16331;52.528;13.342;2023-04-22T03:12:58;159252.13;;;12.90;93.46
29331;BME280;16331;52.528;13.342;2023-04-22T03:15:25;159275.44;;;12.98;93.33
29331;BME280;16331;52.528;13.342;2023-04-22T03:17:51;159242.47;;;12.86;94.03
29331;BME280;16331;52.528;13.342;2023-04-22T03:20:18;159278.25;;;12.99;93.62
29331;BME280;16331;52.528;13.342;2023-04-22T03:22:44;159250.72;;;12.89;94.37
29331;BME280;16331;52.528;13.342;2023-04-22T03:25:12;159209.47;;;12.74;94.56
29331;BME280;16331;52.528;13.342;2023-04-22T03:27:38;159223.22;;;12.79;94.67
29331;BME280;16331;52.528;13.342;2023-04-22T03:30:05;159235.56;;;12.84;94.48
29331;BME280;16331;52.528;13.342;2023-04-22T03:32:32;159224.59;;;12.80;95.56
29331;BME280;16331;52.528;13.342;2023-04-22T03:35:00;159216.38;;;12.77;95.38
29331;BME280;16331;52.528;13.342;2023-04-22T03:37:27;159214.97;;;12.76;95.26
29331;BME280;16331;52.528;13.342;2023-04-22T03:39:53;159254.84;;;12.91;94.55
29331;BME280;16331;52.528;13.342;2023-04-22T03:42:21;159188.84;;;12.67;95.71
29331;BME280;16331;52.528;13.342;2023-04-22T03:44:47;159187.47;;;12.66;95.92
29331;BME280;16331;52.528;13.342;2023-04-22T03:47:15;159198.50;;;12.70;95.67
29331;BME280;16331;52.528;13.342;2023-04-22T03:49:41;159164.13;;;12.58;97.30
29331;BME280;16331;52.528;13.342;2023-04-22T03:52:07;159191.59;;;12.68;96.46
29331;BME280;16331;52.528;13.342;2023-04-22T03:54:33;159195.72;;;12.69;96.41
29331;BME280;16331;52.528;13.342;2023-04-22T03:57:00;159173.72;;;12.61;96.71
29331;BME280;16331;52.528;13.342;2023-04-22T03:59:26;159166.88;;;12.59;97.39
29331;BME280;16331;52.528;13.342;2023-04-22T04:01:52;159166.88;;;12.59;97.29
29331;BME280;16331;52.528;13.342;2023-04-22T04:04:19;159149.00;;;12.52;97.69
29331;BME280;16331;52.528;13.342;2023-04-22T04:06:48;159142.16;;;12.50;98.02
29331;BME280;16331;52.528;13.342;2023-04-22T04:09:15;159129.75;;;12.45;99.05
29331;BME280;16331;52.528;13.342;2023-04-22T04:11:41;159142.16;;;12.50;98.71
29331;BME280;16331;52.528;13.342;2023-04-22T04:14:07;159151.72;;;12.53;99.50
29331;BME280;16331;52.528;13.342;2023-04-22T04:16:36;159151.72;;;12.53;99.13
29331;BME280;16331;52.528;13.342;2023-04-22T04:19:04;159149.00;;;12.52;99.44
29331;BME280;16331;52.528;13.342;2023-04-22T04:21:30;159127.00;;;12.44;99.76
29331;BME280;16331;52.528;13.342;2023-04-22T04:23:58;159147.59;;;12.52;100.00
29331;BME280;16331;52.528;13.342;2023-04-22T04:26:27;159099.50;;;12.34;100.00
29331;BME280;16331;52.528;13.342;2023-04-22T04:28:53;159117.38;;;12.41;100.00
29331;BME280;16331;52.528;13.342;2023-04-22T04:31:21;159078.91;;;12.27;100.00
29331;BME280;16331;52.528;13.342;2023-04-22T04:33:50;159091.28;;;12.31;100.00
29331;BME280;16331;52.528;13.342;2023-04-22T04:36:17;159080.31;;;12.27;100.00
29331;BME280;16331;52.528;13.342;2023-04-22T04:38:44;159054.19;;;12.18;100.00
29331;BME280;16331;52.528;13.342;2023-04-22T04:41:10;159052.81;;;12.17;100.00
29331;BME280;16331;52.528;13.342;2023-04-22T04:43:36;159070.69;;;12.24;100.00
29331;BME280;16331;52.528;13.342;2023-04-22T04:46:03;159083.03;;;12.28;100.00
29331;BME280;16331;52.528;13.342;2023-04-22T04:48:29;159067.94;;;12.23;100.00
29331;BME280;16331;52.528;13.342;2023-04-22T04:50:55;159087.16;;;12.30;100.00
29331;BME280;16331;52.528;13.342;2023-04-22T04:53:21;159129.75;;;12.45;100.00
29331;BME280;16331;52.528;13.342;2023-04-22T04:55:53;159142.16;;;12.50;100.00
29331;BME280;16331;52.528;13.342;2023-04-22T04:58:22;159135.25;;;12.47;100.00
29331;BME280;16331;52.528;13.342;2023-04-22T05:00:50;159129.75;;;12.45;100.00
29331;BME280;16331;52.528;13.342;2023-04-22T05:03:17;159118.78;;;12.41;100.00
29331;BME280;16331;52.528;13.342;2023-04-22T05:05:45;159147.59;;;12.52;100.00
29331;BME280;16331;52.528;13.342;2023-04-22T05:08:13;159172.38;;;12.61;100.00
29331;BME280;16331;52.528;13.342;2023-04-22T05:10:40;159136.63;;;12.48;100.00
29331;BME280;16331;52.528;13.342;2023-04-22T05:13:11;159114.66;;;12.40;100.00
29331;BME280;16331;52.528;13.342;2023-04-22T05:15:37;159212.25;;;12.75;100.00
29331;BME280;16331;52.528;13.342;2023-04-22T05:18:04;159238.38;;;12.85;100.00
29331;BME280;16331;52.528;13.342;2023-04-22T05:20:31;159231.47;;;12.82;100.00
29331;BME280;16331;52.528;13.342;2023-04-22T05:22:58;159268.59;;;12.96;100.00
29331;BME280;16331;52.528;13.342;2023-04-22T05:25:25;159263.09;;;12.94;100.00
29331;BME280;16331;52.528;13.342;2023-04-22T05:27:52;159221.81;;;12.79;100.00
29331;BME280;16331;52.528;13.342;2023-04-22T05:30:19;159187.47;;;12.66;100.00
29331;BME280;16331;52.528;13.342;2023-04-22T05:32:45;159342.91;;;13.23;98.89
29331;BME280;16331;52.528;13.342;2023-04-22T05:35:11;159518.97;;;13.87;94.40
29331;BME280;16331;52.528;13.342;2023-04-22T05:37:38;159633.25;;;14.29;90.78
29331;BME280;16331;52.528;13.342;2023-04-22T05:40:07;159578.13;;;14.09;89.51
29331;BME280;16331;52.528;13.342;2023-04-22T05:42:34;159557.50;;;14.01;92.29
29331;BME280;16331;52.528;13.342;2023-04-22T05:45:00;159554.78;;;14.00;91.39
29331;BME280;16331;52.528;13.342;2023-04-22T05:47:27;159488.72;;;13.76;92.68
29331;BME280;16331;52.528;13.342;2023-04-22T05:49:53;159402.00;;;13.45;94.58
29331;BME280;16331;52.528;13.342;2023-04-22T05:52:19;159402.00;;;13.45;94.59
29331;BME280;16331;52.528;13.342;2023-04-22T05:54:45;159378.66;;;13.36;95.42
29331;BME280;16331;52.528;13.342;2023-04-22T05:57:13;159403.41;;;13.45;95.69
29331;BME280;16331;52.528;13.342;2023-04-22T05:59:39;159413.03;;;13.49;94.68
29331;BME280;16331;52.528;13.342;2023-04-22T06:02:05;159417.16;;;13.50;94.88
29331;BME280;16331;52.528;13.342;2023-04-22T06:04:32;159468.03;;;13.69;94.26
29331;BME280;16331;52.528;13.342;2023-04-22T06:06:59;159448.81;;;13.62;94.28
29331;BME280;16331;52.528;13.342;2023-04-22T06:09:26;159495.56;;;13.79;93.75
29331;BME280;16331;52.528;13.342;2023-04-22T06:11:53;159400.69;;;13.44;95.50
29331;BME280;16331;52.528;13.342;2023-04-22T06:14:20;159408.91;;;13.47;95.77
29331;BME280;16331;52.528;13.342;2023-04-22T06:16:47;159428.16;;;13.54;95.98
29331;BME280;16331;52.528;13.342;2023-04-22T06:19:15;159441.91;;;13.59;96.14
29331;BME280;16331;52.528;13.342;2023-04-22T06:21:41;159422.69;;;13.52;96.20
29331;BME280;16331;52.528;13.342;2023-04-22T06:24:08;159545.13;;;13.97;93.63
29331;BME280;16331;52.528;13.342;2023-04-22T06:26:36;159551.97;;;13.99;93.56
29331;BME280;16331;52.528;13.342;2023-04-22T06:29:03;159612.53;;;14.21;92.76
29331;BME280;16331;52.528;13.342;2023-04-22T06:31:31;159715.84;;;14.59;90.29
29331;BME280;16331;52.528;13.342;2023-04-22T06:33:58;159710.34;;;14.57;89.91
29331;BME280;16331;52.528;13.342;2023-04-22T06:36:25;159768.16;;;14.78;87.63
29331;BME280;16331;52.528;13.342;2023-04-22T06:38:55;159747.53;;;14.71;87.67
29331;BME280;16331;52.528;13.342;2023-04-22T06:41:21;159830.16;;;15.01;86.94
29331;BME280;16331;52.528;13.342;2023-04-22T06:43:49;159775.03;;;14.81;88.61
29331;BME280;16331;52.528;13.342;2023-04-22T06:46:16;159868.72;;;15.15;85.17
29331;BME280;16331;52.528;13.342;2023-04-22T06:48:42;159848.06;;;15.07;86.38
29331;BME280;16331;52.528;13.342;2023-04-22T06:51:08;159834.28;;;15.02;85.69
29331;BME280;16331;52.528;13.342;2023-04-22T06:53:35;159806.72;;;14.92;86.84
29331;BME280;16331;52.528;13.342;2023-04-22T06:56:01;159868.72;;;15.15;85.51
29331;BME280;16331;52.528;13.342;2023-04-22T06:58:27;159987.25;;;15.58;83.74
29331;BME280;16331;52.528;13.342;2023-04-22T07:00:54;160035.47;;;15.75;83.31
29331;BME280;16331;52.528;13.342;2023-04-22T07:03:40;160035.47;;;15.75;80.17
29331;BME280;16331;52.528;13.342;2023-04-22T07:06:08;160039.59;;;15.77;79.79
29331;BME280;16331;52.528;13.342;2023-04-22T07:08:35;160123.69;;;16.08;78.24
29331;BME280;16331;52.528;13.342;2023-04-22T07:11:01;160115.44;;;16.05;77.97
29331;BME280;16331;52.528;13.342;2023-04-22T07:13:27;160105.78;;;16.01;78.13
29331;BME280;16331;52.528;13.342;2023-04-22T07:16:04;160189.88;;;16.32;75.77
29331;BME280;16331;52.528;13.342;2023-04-22T07:18:34;160198.16;;;16.35;75.98
29331;BME280;16331;52.528;13.342;2023-04-22T07:21:00;160160.94;;;16.21;75.56
29331;BME280;16331;52.528;13.342;2023-04-22T07:23:29;160224.34;;;16.44;75.45
29331;BME280;16331;52.528;13.342;2023-04-22T07:25:57;160351.28;;;16.90;73.18
29331;BME280;16331;52.528;13.342;2023-04-22T07:28:23;160376.16;;;16.99;71.10
29331;BME280;16331;52.528;13.342;2023-04-22T07:30:49;160417.53;;;17.14;70.24
29331;BME280;16331;52.528;13.342;2023-04-22T07:33:16;160478.28;;;17.37;68.61
29331;BME280;16331;52.528;13.342;2023-04-22T07:35:42;160376.16;;;16.99;67.74
29331;BME280;16331;52.528;13.342;2023-04-22T07:38:09;160354.09;;;16.91;69.27
29331;BME280;16331;52.528;13.342;2023-04-22T07:40:37;160413.38;;;17.13;68.27
29331;BME280;16331;52.528;13.342;2023-04-22T07:43:03;160435.47;;;17.21;68.93
29331;BME280;16331;52.528;13.342;2023-04-22T07:45:32;160609.47;;;17.84;65.52
29331;BME280;16331;52.528;13.342;2023-04-22T07:47:59;160558.34;;;17.66;65.80
29331;BME280;16331;52.528;13.342;2023-04-22T07:50:26;160616.34;;;17.87;64.05
29331;BME280;16331;52.528;13.342;2023-04-22T07:53:13;160605.31;;;17.83;63.89
29331;BME280;16331;52.528;13.342;2023-04-22T07:55:42;160657.78;;;18.02;64.23
29331;BME280;16331;52.528;13.342;2023-04-22T07:58:08;160674.34;;;18.08;63.14
29331;BME280;16331;52.528;13.342;2023-04-22T08:00:34;160674.34;;;18.08;62.36
29331;BME280;16331;52.528;13.342;2023-04-22T08:03:01;160599.78;;;17.81;63.67
29331;BME280;16331;52.528;13.342;2023-04-22T08:05:29;160663.31;;;18.04;63.41
29331;BME280;16331;52.528;13.342;2023-04-22T08:07:55;160755.84;;;18.37;62.49
29331;BME280;16331;52.528;13.342;2023-04-22T08:10:22;160818.03;;;18.60;60.51
29331;BME280;16331;52.528;13.342;2023-04-22T08:12:51;160848.47;;;18.71;59.91
29331;BME280;16331;52.528;13.342;2023-04-22T08:15:18;160909.25;;;18.93;58.64
29331;BME280;16331;52.528;13.342;2023-04-22T08:17:44;160819.44;;;18.60;58.47
29331;BME280;16331;52.528;13.342;2023-04-22T08:20:10;160934.13;;;19.02;58.41
29331;BME280;16331;52.528;13.342;2023-04-22T08:22:37;160917.53;;;18.96;58.14
29331;BME280;16331;52.528;13.342;2023-04-22T08:25:04;160808.41;;;18.56;58.55
29331;BME280;16331;52.528;13.342;2023-04-22T08:27:32;160787.63;;;18.49;59.98
29331;BME280;16331;52.528;13.342;2023-04-22T08:29:59;160853.97;;;18.73;59.37
29331;BME280;16331;52.528;13.342;2023-04-22T08:32:26;160851.22;;;18.72;58.61
29331;BME280;16331;52.528;13.342;2023-04-22T08:34:52;160860.91;;;18.76;58.89
29331;BME280;16331;52.528;13.342;2023-04-22T08:37:18;160804.25;;;18.55;59.14
29331;BME280;16331;52.528;13.342;2023-04-22T08:39:44;160840.13;;;18.68;59.33
29331;BME280;16331;52.528;13.342;2023-04-22T08:42:14;160970.06;;;19.15;58.18
29331;BME280;16331;52.528;13.342;2023-04-22T08:44:45;161048.91;;;19.44;55.89
29331;BME280;16331;52.528;13.342;2023-04-22T08:47:22;161058.59;;;19.47;56.09
29331;BME280;16331;52.528;13.342;2023-04-22T08:49:50;161019.88;;;19.33;55.23
29331;BME280;16331;52.528;13.342;2023-04-22T08:52:38;160974.19;;;19.17;55.30
29331;BME280;16331;52.528;13.342;2023-04-22T08:55:05;160971.47;;;19.16;54.96
29331;BME280;16331;52.528;13.342;2023-04-22T08:58:02;160947.94;;;19.07;55.22
29331;BME280;16331;52.528;13.342;2023-04-22T09:00:43;161043.34;;;19.42;55.02
29331;BME280;16331;52.528;13.342;2023-04-22T09:03:39;161076.56;;;19.54;54.84
29331;BME280;16331;52.528;13.342;2023-04-22T09:06:18;161127.72;;;19.72;54.94
29331;BME280;16331;52.528;13.342;2023-04-22T09:08:55;161133.25;;;19.74;54.89
29331;BME280;16331;52.528;13.342;2023-04-22T09:11:27;161080.72;;;19.55;55.59
29331;BME280;16331;52.528;13.342;2023-04-22T09:14:01;161084.84;;;19.57;56.39
29331;BME280;16331;52.528;13.342;2023-04-22T09:16:45;161133.25;;;19.74;55.25
29331;BME280;16331;52.528;13.342;2023-04-22T09:19:23;161156.78;;;19.83;54.95
29331;BME280;16331;52.528;13.342;2023-04-22T09:21:52;161166.41;;;19.86;55.02
29331;BME280;16331;52.528;13.342;2023-04-22T09:24:21;161169.22;;;19.87;56.39
29331;BME280;16331;52.528;13.342;2023-04-22T09:26:49;161243.94;;;20.15;54.33
29331;BME280;16331;52.528;13.342;2023-04-22T09:29:19;161206.53;;;20.01;54.45
29331;BME280;16331;52.528;13.342;2023-04-22T09:31:51;161185.81;;;19.93;54.95
29331;BME280;16331;52.528;13.342;2023-04-22T09:34:48;161153.97;;;19.82;54.57
29331;BME280;16331;52.528;13.342;2023-04-22T09:37:26;161158.13;;;19.83;55.93
29331;BME280;16331;52.528;13.342;2023-04-22T09:39:53;161176.09;;;19.90;54.83
29331;BME280;16331;52.528;13.342;2023-04-22T09:43:11;161216.22;;;20.04;55.29
29331;BME280;16331;52.528;13.342;2023-04-22T09:45:42;161160.94;;;19.84;54.77
29331;BME280;16331;52.528;13.342;2023-04-22T09:48:09;161221.78;;;20.06;55.00
29331;BME280;16331;52.528;13.342;2023-04-22T09:50:37;161290.97;;;20.32;53.96
29331;BME280;16331;52.528;13.342;2023-04-22T09:53:09;161255.00;;;20.19;54.01
29331;BME280;16331;52.528;13.342;2023-04-22T09:55:38;161285.41;;;20.30;54.38
29331;BME280;16331;52.528;13.342;2023-04-22T09:58:14;161228.66;;;20.09;53.77
29331;BME280;16331;52.528;13.342;2023-04-22T10:00:49;161358.78;;;20.56;53.51
29331;BME280;16331;52.528;13.342;2023-04-22T10:03:17;161397.53;;;20.70;53.63
29331;BME280;16331;52.528;13.342;2023-04-22T10:05:44;161487.56;;;21.03;51.83
29331;BME280;16331;52.528;13.342;2023-04-22T10:08:12;161457.06;;;20.92;51.72
29331;BME280;16331;52.528;13.342;2023-04-22T10:10:39;161415.53;;;20.77;51.55
29331;BME280;16331;52.528;13.342;2023-04-22T10:13:07;161426.63;;;20.81;51.44
29331;BME280;16331;52.528;13.342;2023-04-22T10:15:50;161473.72;;;20.98;50.95
29331;BME280;16331;52.528;13.342;2023-04-22T10:18:23;161574.78;;;21.34;51.10
29331;BME280;16331;52.528;13.342;2023-04-22T10:20:53;161569.22;;;21.32;49.69
29331;BME280;16331;52.528;13.342;2023-04-22T10:23:22;161541.53;;;21.22;48.14
29331;BME280;16331;52.528;13.342;2023-04-22T10:25:53;161608.00;;;21.46;48.31
29331;BME280;16331;52.528;13.342;2023-04-22T10:28:21;161509.72;;;21.11;48.20
29331;BME280;16331;52.528;13.342;2023-04-22T10:30:53;161639.84;;;21.58;47.93
29331;BME280;16331;52.528;13.342;2023-04-22T10:38:35;161709.19;;;21.83;46.04
29331;BME280;16331;52.528;13.342;2023-04-22T10:41:04;161736.88;;;21.93;44.72
29331;BME280;16331;52.528;13.342;2023-04-22T10:43:54;161702.25;;;21.81;43.43
29331;BME280;16331;52.528;13.342;2023-04-22T10:49:12;161734.13;;;21.92;41.70
29331;BME280;16331;52.528;13.342;2023-04-22T10:57:09;161617.69;;;21.50;41.73
29331;BME280;16331;52.528;13.342;2023-04-22T10:59:53;161742.41;;;21.95;41.55
29331;BME280;16331;52.528;13.342;2023-04-22T11:02:21;162022.44;;;22.97;40.29
29331;BME280;16331;52.528;13.342;2023-04-22T11:04:49;162169.44;;;23.50;38.00
29331;BME280;16331;52.528;13.342;2023-04-22T11:09:58;162162.53;;;23.47;36.45
29331;BME280;16331;52.528;13.342;2023-04-22T11:12:40;162145.91;;;23.41;36.33
29331;BME280;16331;52.528;13.342;2023-04-22T11:15:17;162361.00;;;24.19;36.53
29331;BME280;16331;52.528;13.342;2023-04-22T11:17:52;162463.72;;;24.56;35.70
29331;BME280;16331;52.528;13.342;2023-04-22T11:20:19;162458.16;;;24.54;35.65
29331;BME280;16331;52.528;13.342;2023-04-22T11:22:47;162381.84;;;24.27;35.62
29331;BME280;16331;52.528;13.342;2023-04-22T11:25:15;162377.63;;;24.25;36.37
29331;BME280;16331;52.528;13.342;2023-04-22T11:27:42;162597.06;;;25.04;35.22
29331;BME280;16331;52.528;13.342;2023-04-22T11:30:20;162623.44;;;25.14;35.02
29331;BME280;16331;52.528;13.342;2023-04-22T11:32:56;162863.91;;;26.01;34.15
29331;BME280;16331;52.528;13.342;2023-04-22T11:35:32;162784.66;;;25.72;33.04
29331;BME280;16331;52.528;13.342;2023-04-22T11:38:04;162651.25;;;25.24;34.32
29331;BME280;16331;52.528;13.342;2023-04-22T11:40:43;162720.72;;;25.49;34.29
29331;BME280;16331;52.528;13.342;2023-04-22T11:43:11;162684.59;;;25.36;34.61
29331;BME280;16331;52.528;13.342;2023-04-22T11:45:40;162715.16;;;25.47;33.57
29331;BME280;16331;52.528;13.342;2023-04-22T11:48:08;162384.59;;;24.27;35.20
29331;BME280;16331;52.528;13.342;2023-04-22T11:50:38;162702.66;;;25.42;33.89
29331;BME280;16331;52.528;13.342;2023-04-22T11:53:19;162767.94;;;25.66;33.11
29331;BME280;16331;52.528;13.342;2023-04-22T11:55:49;162559.53;;;24.91;33.93
29331;BME280;16331;52.528;13.342;2023-04-22T11:58:27;162463.72;;;24.56;34.45
29331;BME280;16331;52.528;13.342;2023-04-22T12:00:54;162674.81;;;25.32;33.70
29331;BME280;16331;52.528;13.342;2023-04-22T12:03:32;162919.47;;;26.21;32.47
29331;BME280;16331;52.528;13.342;2023-04-22T12:06:04;162989.03;;;26.46;31.95
29331;BME280;16331;52.528;13.342;2023-04-22T12:08:35;162947.28;;;26.31;31.06
29331;BME280;16331;52.528;13.342;2023-04-22T12:11:05;162698.50;;;25.41;31.54
29331;BME280;16331;52.528;13.342;2023-04-22T12:13:39;162742.94;;;25.57;32.11
29331;BME280;16331;52.528;13.342;2023-04-22T12:16:20;162965.38;;;26.37;31.01
29331;BME280;16331;52.528;13.342;2023-04-22T12:18:52;162923.66;;;26.22;30.52
29331;BME280;16331;52.528;13.342;2023-04-22T12:21:30;162941.72;;;26.29;30.26
29331;BME280;16331;52.528;13.342;2023-04-22T12:24:02;162943.13;;;26.29;30.06
29331;BME280;16331;52.528;13.342;2023-04-22T12:26:45;163033.50;;;26.62;30.45
29331;BME280;16331;52.528;13.342;2023-04-22T12:29:11;162972.31;;;26.40;30.52
29331;BME280;16331;52.528;13.342;2023-04-22T12:31:40;162822.16;;;25.86;31.05
29331;BME280;16331;52.528;13.342;2023-04-22T12:34:38;162990.38;;;26.46;30.71
29331;BME280;16331;52.528;13.342;2023-04-22T12:37:23;163128.09;;;26.96;29.55
29331;BME280;16331;52.528;13.342;2023-04-22T12:39:51;162991.78;;;26.47;29.96
29331;BME280;16331;52.528;13.342;2023-04-22T12:42:24;162769.34;;;25.67;30.90
29331;BME280;16331;52.528;13.342;2023-04-22T12:44:51;162779.09;;;25.70;31.28
29331;BME280;16331;52.528;13.342;2023-04-22T12:47:17;162893.06;;;26.11;29.80
29331;BME280;16331;52.528;13.342;2023-04-22T12:49:45;163012.63;;;26.54;29.01
29331;BME280;16331;52.528;13.342;2023-04-22T12:52:12;163457.97;;;28.15;27.77
29331;BME280;16331;52.528;13.342;2023-04-22T12:54:41;163349.31;;;27.76;27.93
29331;BME280;16331;52.528;13.342;2023-04-22T12:57:10;162898.66;;;26.13;29.05
29331;BME280;16331;52.528;13.342;2023-04-22T12:59:37;163249.16;;;27.40;27.57
29331;BME280;16331;52.528;13.342;2023-04-22T13:02:08;163043.25;;;26.65;27.87
29331;BME280;16331;52.528;13.342;2023-04-22T13:04:58;162822.16;;;25.86;28.79